createdAt,value
2023-03-01T00:01:49.753Z,59.25
2023-03-01T00:04:17.806Z,59.25
2023-03-01T00:06:47.192Z,59.25
2023-03-01T00:09:15.985Z,59.04
2023-03-01T00:11:45.424Z,58.90
2023-03-01T00:14:13.673Z,58.70
2023-03-01T00:16:47.638Z,58.66
2023-03-01T00:19:20.124Z,58.74
2023-03-01T00:21:48.370Z,58.54
2023-03-01T00:29:01.369Z,58.26
2023-03-01T00:35:59.326Z,57.88
2023-03-01T00:38:27.241Z,57.70
2023-03-01T00:40:55.282Z,57.46
2023-03-01T00:43:27.655Z,57.48
2023-03-01T00:45:56.684Z,57.59
2023-03-01T00:48:24.828Z,57.76
2023-03-01T00:50:53.036Z,57.87
2023-03-01T00:53:21.273Z,58.23
2023-03-01T00:55:49.981Z,58.36
2023-03-01T00:58:18.891Z,58.86
2023-03-01T01:00:49.937Z,59.03
2023-03-01T01:03:18.200Z,59.06
2023-03-01T01:05:47.014Z,59.25
2023-03-01T01:08:15.533Z,59.18
2023-03-01T01:10:45.504Z,58.98
2023-03-01T01:13:17.681Z,58.82
2023-03-01T01:15:46.338Z,58.89
2023-03-01T01:18:14.577Z,59.05
2023-03-01T01:20:44.491Z,59.39
2023-03-01T01:23:13.494Z,59.63
2023-03-01T01:25:42.987Z,60.19
2023-03-01T01:28:11.198Z,60.54
2023-03-01T01:30:39.187Z,60.89
2023-03-01T01:33:07.697Z,61.20
2023-03-01T01:35:35.789Z,61.52
2023-03-01T01:38:03.787Z,62.13
2023-03-01T01:40:31.854Z,62.40
2023-03-01T01:43:03.115Z,62.12
2023-03-01T01:45:35.430Z,61.58
2023-03-01T01:48:11.301Z,61.61
2023-03-01T01:50:41.418Z,61.50
2023-03-01T01:53:19.216Z,61.76
2023-03-01T01:55:50.574Z,61.93
2023-03-01T01:58:19.926Z,61.72
2023-03-01T02:00:49.455Z,61.72
2023-03-01T02:03:26.473Z,61.60
2023-03-01T02:06:16.628Z,61.37
2023-03-01T02:08:44.774Z,60.96
2023-03-01T02:11:12.738Z,60.85
2023-03-01T02:13:41.882Z,60.78
2023-03-01T02:16:10.580Z,60.55
2023-03-01T02:18:42.513Z,60.72
2023-03-01T02:21:23.028Z,60.88
2023-03-01T02:23:56.825Z,61.12
2023-03-01T02:26:47.962Z,61.08
2023-03-01T02:29:16.073Z,61.05
2023-03-01T02:31:44.267Z,60.63
2023-03-01T02:34:21.460Z,60.65
2023-03-01T02:36:53.706Z,61.05
2023-03-01T02:39:30.327Z,61.01
2023-03-01T02:42:00.035Z,60.99
2023-03-01T02:44:28.365Z,60.74
2023-03-01T02:46:57.226Z,60.66
2023-03-01T02:49:30.093Z,60.50
2023-03-01T02:51:58.094Z,60.54
2023-03-01T02:54:30.287Z,60.02
2023-03-01T02:56:58.762Z,59.94
2023-03-01T02:59:30.311Z,59.58
2023-03-01T03:01:58.491Z,59.53
2023-03-01T03:04:26.847Z,59.53
2023-03-01T03:06:55.223Z,59.99
2023-03-01T03:09:23.523Z,60.20
2023-03-01T03:11:55.994Z,60.68
2023-03-01T03:14:24.711Z,60.71
2023-03-01T03:16:53.062Z,60.63
2023-03-01T03:19:21.252Z,60.64
2023-03-01T03:21:50.530Z,60.29
2023-03-01T03:24:19.532Z,60.07
2023-03-01T03:26:47.947Z,59.90
2023-03-01T03:29:16.024Z,59.49
2023-03-01T03:31:44.031Z,59.83
2023-03-01T03:34:19.142Z,60.15
2023-03-01T03:36:47.525Z,60.50
2023-03-01T03:39:15.456Z,60.71
2023-03-01T03:41:43.555Z,60.99
2023-03-01T03:44:11.708Z,61.11
2023-03-01T03:46:39.733Z,61.40
2023-03-01T03:49:08.054Z,61.60
2023-03-01T03:51:36.258Z,61.82
2023-03-01T03:54:04.859Z,62.06
2023-03-01T03:56:35.983Z,62.29
2023-03-01T03:59:04.070Z,62.30
2023-03-01T04:01:32.316Z,62.11
2023-03-01T04:04:05.098Z,62.17
2023-03-01T04:06:33.502Z,62.02
2023-03-01T04:09:03.440Z,61.75
2023-03-01T04:11:31.474Z,61.86
2023-03-01T04:14:00.305Z,61.60
2023-03-01T04:16:30.848Z,61.23
2023-03-01T04:19:00.886Z,61.29
2023-03-01T04:21:29.203Z,61.33
2023-03-01T04:23:57.812Z,61.42
2023-03-01T04:26:28.080Z,61.54
2023-03-01T04:28:56.110Z,61.61
2023-03-01T04:31:24.290Z,62.07
2023-03-01T04:33:54.001Z,62.30
2023-03-01T04:36:27.150Z,62.07
2023-03-01T04:38:55.712Z,61.92
2023-03-01T04:41:24.881Z,61.88
2023-03-01T04:43:53.886Z,61.78
2023-03-01T04:46:22.706Z,61.61
2023-03-01T04:48:56.049Z,61.35
2023-03-01T04:51:24.137Z,61.56
2023-03-01T04:53:52.666Z,61.64
2023-03-01T04:56:20.834Z,61.44
2023-03-01T04:58:48.973Z,61.37
2023-03-01T05:01:20.410Z,61.15
2023-03-01T05:03:50.222Z,61.04
2023-03-01T05:06:18.728Z,60.89
2023-03-01T05:08:46.691Z,60.73
2023-03-01T05:11:14.755Z,61.00
2023-03-01T05:13:42.787Z,60.78
2023-03-01T05:16:13.902Z,60.51
2023-03-01T05:18:42.734Z,60.51
2023-03-01T05:21:17.235Z,60.56
2023-03-01T05:23:45.779Z,60.67
2023-03-01T05:26:39.565Z,60.85
2023-03-01T05:29:02.557Z,61.05
2023-03-01T05:31:31.961Z,61.11
2023-03-01T05:34:00.127Z,60.96
2023-03-01T05:36:28.322Z,60.83
2023-03-01T05:38:57.012Z,60.54
2023-03-01T05:41:25.338Z,60.08
2023-03-01T05:43:54.133Z,59.84
2023-03-01T05:46:25.418Z,59.48
2023-03-01T05:48:54.000Z,59.15
2023-03-01T05:51:23.266Z,58.68
2023-03-01T05:53:51.325Z,58.72
2023-03-01T05:56:19.508Z,58.73
2023-03-01T05:58:48.818Z,58.73
2023-03-01T06:01:17.113Z,58.35
2023-03-01T06:03:48.175Z,58.34
2023-03-01T06:06:17.029Z,58.10
2023-03-01T06:08:45.758Z,58.01
2023-03-01T06:11:14.620Z,58.26
2023-03-01T06:13:43.818Z,57.83
2023-03-01T06:16:14.623Z,57.75
2023-03-01T06:18:43.738Z,57.99
2023-03-01T06:21:11.959Z,58.00
2023-03-01T06:23:41.472Z,58.37
2023-03-01T06:26:09.607Z,58.83
2023-03-01T06:28:40.077Z,58.98
2023-03-01T06:31:10.706Z,59.24
2023-03-01T06:33:38.670Z,59.33
2023-03-01T06:36:08.788Z,59.30
2023-03-01T06:38:37.086Z,59.25
2023-03-01T06:41:05.502Z,59.42
2023-03-01T06:43:33.928Z,59.59
2023-03-01T06:46:05.097Z,59.66
2023-03-01T06:48:34.724Z,60.20
2023-03-01T06:51:03.754Z,60.70
2023-03-01T06:53:32.064Z,60.58
2023-03-01T06:56:01.288Z,60.46
2023-03-01T06:58:29.717Z,60.79
2023-03-01T07:00:57.871Z,61.09
2023-03-01T07:03:26.196Z,60.96
2023-03-01T07:05:54.208Z,61.27
2023-03-01T07:08:23.818Z,60.83
2023-03-01T07:10:58.964Z,60.61
2023-03-01T07:13:29.348Z,60.64
2023-03-01T07:15:58.059Z,60.77
2023-03-01T07:18:26.401Z,60.60
2023-03-01T07:21:08.324Z,60.79
2023-03-01T07:23:37.232Z,60.47
2023-03-01T07:26:05.568Z,60.29
2023-03-01T07:28:37.069Z,60.26
2023-03-01T07:31:06.235Z,59.69
2023-03-01T07:33:36.370Z,59.78
2023-03-01T07:36:05.052Z,59.11
2023-03-01T07:38:33.444Z,59.34
2023-03-01T07:41:03.076Z,59.44
2023-03-01T07:43:32.048Z,59.69
2023-03-01T07:46:01.638Z,59.66
2023-03-01T07:48:30.190Z,59.51
2023-03-01T07:51:02.702Z,59.83
2023-03-01T07:53:32.309Z,59.71
2023-03-01T07:56:04.474Z,60.29
2023-03-01T07:58:32.521Z,60.77
2023-03-01T08:01:05.009Z,60.75
2023-03-01T08:03:33.703Z,60.36
2023-03-01T08:06:05.643Z,60.34
2023-03-01T08:08:33.932Z,60.26
2023-03-01T08:11:04.265Z,60.32
2023-03-01T08:13:32.313Z,60.17
2023-03-01T08:16:05.135Z,60.37
2023-03-01T08:18:33.494Z,60.35
2023-03-01T08:21:06.313Z,60.47
2023-03-01T08:23:38.165Z,60.57
2023-03-01T08:26:09.158Z,60.44
2023-03-01T08:28:37.494Z,60.70
2023-03-01T08:31:19.192Z,60.46
2023-03-01T08:33:57.560Z,60.16
2023-03-01T08:36:34.084Z,60.29
2023-03-01T08:39:02.460Z,60.55
2023-03-01T08:41:31.058Z,60.24
2023-03-01T08:44:02.278Z,60.67
2023-03-01T08:46:35.200Z,61.06
2023-03-01T08:49:14.430Z,61.36
2023-03-01T08:51:43.092Z,61.37
2023-03-01T08:54:16.825Z,61.45
2023-03-01T08:56:45.533Z,61.76
2023-03-01T08:59:15.296Z,61.93
2023-03-01T09:01:45.878Z,62.31
2023-03-01T09:04:14.192Z,62.20
2023-03-01T09:06:43.122Z,61.75
2023-03-01T09:09:17.171Z,61.71
2023-03-01T09:11:47.262Z,61.89
2023-03-01T09:14:19.717Z,61.73
2023-03-01T09:16:49.075Z,61.78
2023-03-01T09:19:17.459Z,61.89
2023-03-01T09:21:54.174Z,61.89
2023-03-01T09:24:23.756Z,61.84
2023-03-01T09:26:57.037Z,62.03
2023-03-01T09:29:25.518Z,62.04
2023-03-01T09:31:56.496Z,62.09
2023-03-01T09:34:25.022Z,62.08
2023-03-01T09:36:53.327Z,62.39
2023-03-01T09:39:21.613Z,62.79
2023-03-01T09:42:03.283Z,62.50
2023-03-01T09:44:54.970Z,62.55
2023-03-01T09:47:27.875Z,62.72
2023-03-01T09:50:02.836Z,62.63
2023-03-01T09:52:51.555Z,62.98
2023-03-01T09:55:26.954Z,63.04
2023-03-01T09:57:58.006Z,63.21
2023-03-01T10:00:48.939Z,63.59
2023-03-01T10:03:24.217Z,63.32
2023-03-01T10:06:35.333Z,63.45
2023-03-01T10:09:11.828Z,63.44
2023-03-01T10:11:42.895Z,63.47
2023-03-01T10:14:40.553Z,63.41
2023-03-01T10:17:29.676Z,63.25
2023-03-01T10:19:58.635Z,63.18
2023-03-01T10:22:30.241Z,63.06
2023-03-01T10:25:00.785Z,63.16
2023-03-01T10:27:52.792Z,63.18
2023-03-01T10:30:36.245Z,62.49
2023-03-01T10:33:05.089Z,62.45
2023-03-01T10:35:37.251Z,62.54
2023-03-01T10:38:05.494Z,62.46
2023-03-01T10:40:34.738Z,62.19
2023-03-01T10:43:04.919Z,62.82
2023-03-01T10:45:37.717Z,62.66
2023-03-01T10:48:20.370Z,62.82
2023-03-01T10:50:50.199Z,62.67
2023-03-01T10:53:27.295Z,62.74
2023-03-01T10:56:12.032Z,62.86
2023-03-01T10:58:42.071Z,62.96
2023-03-01T11:01:16.379Z,63.15
2023-03-01T11:03:45.576Z,63.05
2023-03-01T11:06:13.584Z,62.90
2023-03-01T11:08:46.142Z,62.52
2023-03-01T11:11:24.652Z,62.61
2023-03-01T11:14:00.833Z,62.74
2023-03-01T11:16:39.032Z,62.61
2023-03-01T11:19:10.336Z,62.32
2023-03-01T11:21:42.590Z,62.27
2023-03-01T11:24:12.731Z,61.87
2023-03-01T11:26:43.490Z,61.93
2023-03-01T11:29:47.751Z,61.79
2023-03-01T11:32:16.570Z,61.31
2023-03-01T11:35:06.757Z,61.71
2023-03-01T11:37:39.075Z,61.60
2023-03-01T11:40:24.326Z,61.88
2023-03-01T11:42:57.742Z,62.10
2023-03-01T11:45:26.474Z,62.31
2023-03-01T11:48:20.902Z,62.64
2023-03-01T11:50:49.638Z,62.51
2023-03-01T11:53:41.193Z,62.65
2023-03-01T11:56:30.006Z,62.55
2023-03-01T11:59:00.816Z,62.03
2023-03-01T12:02:08.367Z,61.82
2023-03-01T12:04:42.073Z,61.43
2023-03-01T12:07:25.633Z,61.25
2023-03-01T12:10:03.288Z,61.69
2023-03-01T12:12:49.612Z,61.88
2023-03-01T12:15:33.203Z,61.86
2023-03-01T12:18:32.673Z,61.67
2023-03-01T12:21:16.126Z,61.79
2023-03-01T12:23:48.354Z,62.02
2023-03-01T12:26:21.236Z,61.89
2023-03-01T12:29:25.780Z,61.71
2023-03-01T12:32:18.357Z,61.09
2023-03-01T12:34:57.914Z,60.67
2023-03-01T12:37:37.714Z,60.50
2023-03-01T12:40:34.119Z,59.97
2023-03-01T12:43:23.985Z,59.89
2023-03-01T12:45:56.038Z,59.84
2023-03-01T12:48:47.108Z,59.86
2023-03-01T12:51:18.203Z,59.47
2023-03-01T12:53:48.949Z,59.38
2023-03-01T12:56:25.245Z,59.41
2023-03-01T12:59:02.268Z,59.44
2023-03-01T13:01:47.915Z,59.51
2023-03-01T13:04:49.100Z,59.56
2023-03-01T13:07:30.051Z,59.69
2023-03-01T13:10:23.064Z,59.68
2023-03-01T13:12:58.827Z,59.96
2023-03-01T13:15:29.146Z,60.06
2023-03-01T13:17:58.771Z,60.34
2023-03-01T13:20:35.973Z,60.33
2023-03-01T13:23:13.758Z,60.65
2023-03-01T13:26:05.444Z,60.69
2023-03-01T13:28:57.012Z,61.41
2023-03-01T13:31:27.918Z,61.68
2023-03-01T13:33:57.147Z,61.34
2023-03-01T13:36:28.986Z,60.97
2023-03-01T13:39:01.034Z,61.03
2023-03-01T13:41:44.837Z,60.73
2023-03-01T13:44:36.982Z,60.48
2023-03-01T13:47:15.516Z,60.54
2023-03-01T13:49:47.712Z,60.32
2023-03-01T13:52:41.739Z,60.10
2023-03-01T13:55:15.623Z,60.43
2023-03-01T13:57:55.984Z,60.68
2023-03-01T14:00:37.228Z,60.90
2023-03-01T14:03:14.178Z,60.36
2023-03-01T14:05:45.684Z,60.15
2023-03-01T14:08:22.423Z,60.19
2023-03-01T14:11:06.995Z,60.40
2023-03-01T14:13:42.639Z,60.19
2023-03-01T14:16:38.516Z,59.91
2023-03-01T14:19:38.165Z,59.80
2023-03-01T14:22:30.465Z,59.99
2023-03-01T14:25:02.847Z,59.92
2023-03-01T14:27:40.539Z,59.86
2023-03-01T14:30:38.931Z,60.30
2023-03-01T14:33:21.959Z,60.52
2023-03-01T14:35:54.050Z,60.60
2023-03-01T14:38:24.397Z,60.49
2023-03-01T14:40:53.430Z,60.44
2023-03-01T14:43:21.747Z,60.62
2023-03-01T14:45:50.914Z,60.56
2023-03-01T14:48:19.013Z,60.48
2023-03-01T14:50:47.389Z,60.56
2023-03-01T14:53:21.173Z,60.63
2023-03-01T14:55:51.826Z,60.52
2023-03-01T14:58:21.790Z,60.75
2023-03-01T15:00:55.196Z,61.15
2023-03-01T15:03:38.212Z,60.81
2023-03-01T15:06:07.229Z,60.74
2023-03-01T15:08:36.619Z,60.73
2023-03-01T15:11:25.978Z,60.82
2023-03-01T15:13:56.225Z,60.77
2023-03-01T15:16:31.982Z,61.09
2023-03-01T15:19:05.593Z,60.72
2023-03-01T15:21:40.295Z,61.11
2023-03-01T15:24:20.468Z,61.01
2023-03-01T15:26:58.662Z,61.25
2023-03-01T15:29:31.373Z,61.27
2023-03-01T15:32:01.015Z,61.46
2023-03-01T15:34:31.847Z,61.61
2023-03-01T15:37:06.811Z,61.92
2023-03-01T15:39:46.631Z,61.91
2023-03-01T15:42:28.032Z,61.75
2023-03-01T15:45:21.814Z,61.93
2023-03-01T15:47:58.781Z,62.19
2023-03-01T15:50:29.194Z,62.15
2023-03-01T15:53:00.862Z,62.47
2023-03-01T15:55:31.010Z,62.45
2023-03-01T15:58:24.327Z,62.69
2023-03-01T16:01:01.951Z,62.49
2023-03-01T16:03:30.449Z,62.74
2023-03-01T16:05:58.926Z,62.72
2023-03-01T16:08:27.265Z,62.67
2023-03-01T16:10:56.658Z,62.62
2023-03-01T16:13:28.364Z,62.80
2023-03-01T16:16:04.118Z,62.46
2023-03-01T16:18:32.458Z,62.62
2023-03-01T16:21:00.598Z,62.68
2023-03-01T16:23:28.621Z,62.83
2023-03-01T16:26:00.763Z,63.04
2023-03-01T16:28:30.222Z,62.74
2023-03-01T16:30:58.425Z,62.75
2023-03-01T16:33:33.670Z,62.93
2023-03-01T16:36:09.030Z,62.89
2023-03-01T16:38:37.837Z,62.89
2023-03-01T16:41:06.717Z,63.06
2023-03-01T16:43:34.777Z,63.13
2023-03-01T16:46:11.928Z,63.46
2023-03-01T16:48:40.849Z,63.15
2023-03-01T16:51:11.957Z,63.23
2023-03-01T16:53:47.800Z,63.11
2023-03-01T16:56:18.817Z,63.30
2023-03-01T16:58:47.987Z,63.36
2023-03-01T17:01:25.459Z,63.41
2023-03-01T17:03:54.274Z,63.47
2023-03-01T17:06:24.602Z,63.55
2023-03-01T17:08:58.066Z,63.88
2023-03-01T17:11:26.036Z,63.93
2023-03-01T17:13:56.597Z,63.72
2023-03-01T17:16:25.257Z,63.87
2023-03-01T17:18:53.384Z,63.92
2023-03-01T17:21:21.556Z,63.72
2023-03-01T17:23:50.431Z,63.92
2023-03-01T17:26:19.758Z,64.03
2023-03-01T17:28:52.354Z,63.83
2023-03-01T17:31:20.812Z,63.63
2023-03-01T17:33:50.099Z,63.84
2023-03-01T17:36:18.746Z,63.77
2023-03-01T17:38:47.315Z,63.72
2023-03-01T17:41:17.843Z,63.91
2023-03-01T17:43:46.043Z,63.78
2023-03-01T17:46:14.179Z,63.77
2023-03-01T17:48:42.316Z,63.65
2023-03-01T17:51:30.485Z,63.61
2023-03-01T17:53:58.832Z,63.72
2023-03-01T17:56:27.287Z,63.47
2023-03-01T17:59:02.105Z,63.33
2023-03-01T18:01:31.560Z,63.63
2023-03-01T18:04:00.207Z,63.45
2023-03-01T18:06:29.332Z,63.26
2023-03-01T18:08:57.470Z,63.50
2023-03-01T18:11:25.552Z,63.29
2023-03-01T18:13:56.238Z,63.30
2023-03-01T18:16:24.642Z,63.35
2023-03-01T18:18:58.052Z,63.27
2023-03-01T18:21:26.348Z,63.31
2023-03-01T18:23:54.766Z,63.38
2023-03-01T18:26:23.032Z,64.22
2023-03-01T18:28:51.802Z,63.68
2023-03-01T18:31:25.561Z,63.46
2023-03-01T18:33:55.228Z,63.32
2023-03-01T18:36:24.811Z,63.09
2023-03-01T18:38:53.861Z,63.21
2023-03-01T18:41:22.328Z,63.11
2023-03-01T18:43:50.689Z,63.07
2023-03-01T18:46:20.470Z,63.25
2023-03-01T18:48:49.211Z,63.18
2023-03-01T18:51:19.264Z,63.09
2023-03-01T18:53:47.878Z,62.95
2023-03-01T18:56:16.596Z,62.88
2023-03-01T18:58:44.748Z,62.83
2023-03-01T19:01:24.124Z,62.86
2023-03-01T19:03:53.539Z,62.68
2023-03-01T19:06:21.828Z,62.73
2023-03-01T19:08:58.552Z,62.58
2023-03-01T19:11:31.355Z,62.44
2023-03-01T19:14:00.283Z,62.60
2023-03-01T19:16:30.680Z,62.57
2023-03-01T19:19:00.587Z,62.83
2023-03-01T19:21:30.265Z,63.63
2023-03-01T19:23:59.292Z,63.77
2023-03-01T19:26:28.342Z,63.49
2023-03-01T19:28:56.637Z,63.58
2023-03-01T19:31:27.129Z,63.24
2023-03-01T19:34:05.265Z,63.49
2023-03-01T19:36:38.299Z,63.71
2023-03-01T19:39:07.094Z,63.52
2023-03-01T19:41:36.785Z,63.24
2023-03-01T19:44:06.024Z,63.13
2023-03-01T19:46:35.120Z,63.37
2023-03-01T19:49:03.788Z,63.45
2023-03-01T19:51:36.794Z,63.57
2023-03-01T19:54:06.091Z,63.82
2023-03-01T19:56:34.957Z,63.52
2023-03-01T19:59:04.580Z,63.30
2023-03-01T20:01:34.719Z,63.05
2023-03-01T20:04:09.425Z,62.90
2023-03-01T20:06:40.373Z,62.77
2023-03-01T20:09:20.357Z,63.04
2023-03-01T20:11:51.779Z,63.06
2023-03-01T20:14:24.445Z,63.28
2023-03-01T20:16:54.662Z,63.61
2023-03-01T20:19:23.027Z,63.46
2023-03-01T20:21:53.762Z,63.54
2023-03-01T20:24:23.058Z,63.61
2023-03-01T20:26:51.070Z,63.64
2023-03-01T20:29:19.995Z,63.39
2023-03-01T20:31:48.307Z,63.65
2023-03-01T20:34:16.432Z,63.54
2023-03-01T20:36:44.544Z,63.52
2023-03-01T20:39:14.363Z,63.66
2023-03-01T20:41:46.308Z,63.83
2023-03-01T20:44:18.044Z,63.82
2023-03-01T20:46:46.146Z,63.44
2023-03-01T20:49:14.337Z,63.67
2023-03-01T20:51:42.647Z,63.91
2023-03-01T20:54:14.111Z,63.71
2023-03-01T20:56:43.287Z,63.86
2023-03-01T20:59:11.826Z,63.93
2023-03-01T21:01:40.676Z,64.03
2023-03-01T21:04:10.160Z,63.82
2023-03-01T21:06:39.714Z,63.50
2023-03-01T21:09:07.809Z,63.36
2023-03-01T21:11:40.744Z,63.17
2023-03-01T21:14:09.204Z,63.41
2023-03-01T21:16:37.465Z,63.23
2023-03-01T21:19:11.696Z,63.52
2023-03-01T21:21:41.436Z,63.42
2023-03-01T21:24:11.905Z,63.22
2023-03-01T21:26:42.195Z,63.47
2023-03-01T21:29:10.119Z,63.62
2023-03-01T21:31:38.903Z,63.76
2023-03-01T21:34:07.385Z,63.86
2023-03-01T21:36:38.842Z,64.04
2023-03-01T21:39:07.256Z,63.88
2023-03-01T21:41:36.862Z,64.07
2023-03-01T21:44:07.294Z,64.09
2023-03-01T21:46:37.816Z,64.17
2023-03-01T21:49:07.317Z,64.24
2023-03-01T21:51:36.746Z,64.28
2023-03-01T21:54:07.918Z,63.93
2023-03-01T21:56:39.171Z,63.93
2023-03-01T21:59:09.246Z,64.31
2023-03-01T22:01:37.643Z,64.12
2023-03-01T22:04:05.808Z,64.03
2023-03-01T22:06:40.338Z,64.34
2023-03-01T22:09:13.505Z,64.30
2023-03-01T22:11:49.636Z,64.19
2023-03-01T22:14:18.963Z,64.09
2023-03-01T22:16:47.797Z,64.34
2023-03-01T22:19:16.338Z,64.07
2023-03-01T22:21:45.821Z,63.89
2023-03-01T22:24:15.219Z,63.72
2023-03-01T22:26:43.715Z,63.67
2023-03-01T22:29:17.733Z,63.78
2023-03-01T22:31:46.098Z,63.33
2023-03-01T22:34:15.016Z,63.11
2023-03-01T22:36:43.203Z,63.36
2023-03-01T22:39:11.506Z,63.04
2023-03-01T22:41:45.023Z,62.69
2023-03-01T22:44:18.735Z,62.47
2023-03-01T22:46:52.074Z,62.19
2023-03-01T22:49:20.613Z,61.82
2023-03-01T22:51:48.699Z,61.80
2023-03-01T22:54:17.124Z,61.47
2023-03-01T22:56:48.626Z,61.88
2023-03-01T22:59:23.139Z,61.80
2023-03-01T23:01:52.261Z,61.71
2023-03-01T23:04:21.153Z,61.60
2023-03-01T23:06:56.926Z,61.45
2023-03-01T23:09:31.255Z,60.73
2023-03-01T23:12:01.447Z,60.35
2023-03-01T23:14:31.310Z,60.62
2023-03-01T23:17:01.577Z,61.01
2023-03-01T23:19:30.090Z,60.93
2023-03-01T23:21:58.132Z,60.94
2023-03-01T23:24:31.647Z,60.50
2023-03-01T23:27:02.429Z,60.30
2023-03-01T23:29:32.317Z,60.22
2023-03-01T23:32:00.561Z,60.59
2023-03-01T23:34:29.278Z,60.76
2023-03-01T23:41:44.366Z,61.82
2023-03-01T23:45:31.701Z,61.76
2023-03-01T23:47:59.965Z,62.03
2023-03-01T23:50:30.502Z,61.98
2023-03-01T23:52:58.571Z,61.65
2023-03-01T23:55:27.050Z,61.65
2023-03-01T23:57:55.174Z,61.82
